sensor_id;sensor_type;location;lat;lon;timestamp;pressure;altitude;pressure_sealevel;temperature
15360;BMP280;7779;49.596;11.070;2022-10-16T00:01:10;98115.44;;;20.13
15360;BMP280;7779;49.596;11.070;2022-10-16T00:03:41;98131.47;;;20.09
15360;BMP280;7779;49.596;11.070;2022-10-16T00:06:10;98125.50;;;20.07
15360;BMP280;7779;49.596;11.070;2022-10-16T00:08:38;98128.91;;;20.06
15360;BMP280;7779;49.596;11.070;2022-10-16T00:11:17;98128.00;;;20.04
15360;BMP280;7779;49.596;11.070;2022-10-16T00:13:45;98139.00;;;20.03
15360;BMP280;7779;49.596;11.070;2022-10-16T00:16:13;98132.22;;;20.02
15360;BMP280;7779;49.596;11.070;2022-10-16T00:18:39;98125.47;;;20.04
15360;BMP280;7779;49.596;11.070;2022-10-16T00:21:14;98139.88;;;20.05
15360;BMP280;7779;49.596;11.070;2022-10-16T00:23:41;98135.63;;;20.06
15360;BMP280;7779;49.596;11.070;2022-10-16T00:26:14;98144.97;;;20.05
15360;BMP280;7779;49.596;11.070;2022-10-16T00:28:40;98143.28;;;20.06
15360;BMP280;7779;49.596;11.070;2022-10-16T00:31:09;98133.97;;;20.06
15360;BMP280;7779;49.596;11.070;2022-10-16T00:33:38;98133.09;;;20.06
15360;BMP280;7779;49.596;11.070;2022-10-16T00:36:06;98139.88;;;20.05
15360;BMP280;7779;49.596;11.070;2022-10-16T00:38:32;98131.38;;;20.03
15360;BMP280;7779;49.596;11.070;2022-10-16T00:40:58;98125.41;;;20.01
15360;BMP280;7779;49.596;11.070;2022-10-16T00:49:10;98121.94;;;19.97
15360;BMP280;7779;49.596;11.070;2022-10-16T00:51:52;98127.84;;;19.94
15360;BMP280;7779;49.596;11.070;2022-10-16T00:54:31;98121.00;;;19.92
15360;BMP280;7779;49.596;11.070;2022-10-16T00:57:05;98134.56;;;19.91
15360;BMP280;7779;49.596;11.070;2022-10-16T00:59:36;98139.56;;;19.88
15360;BMP280;7779;49.596;11.070;2022-10-16T01:02:05;98146.31;;;19.86
15360;BMP280;7779;49.596;11.070;2022-10-16T01:04:39;98154.81;;;19.85
15360;BMP280;7779;49.596;11.070;2022-10-16T01:13:04;98152.06;;;19.76
15360;BMP280;7779;49.596;11.070;2022-10-16T01:18:35;98141.78;;;19.71
15360;BMP280;7779;49.596;11.070;2022-10-16T01:21:08;98142.69;;;19.72
15360;BMP280;7779;49.596;11.070;2022-10-16T01:24:08;98150.31;;;19.72
15360;BMP280;7779;49.596;11.070;2022-10-16T01:32:30;98152.78;;;19.69
15360;BMP280;7779;49.596;11.070;2022-10-16T01:35:12;98140.06;;;19.69
15360;BMP280;7779;49.596;11.070;2022-10-16T01:37:53;98158.66;;;19.68
15360;BMP280;7779;49.596;11.070;2022-10-16T01:40:25;98154.44;;;19.67
15360;BMP280;7779;49.596;11.070;2022-10-16T01:43:20;98166.31;;;19.68
15360;BMP280;7779;49.596;11.070;2022-10-16T01:45:48;98169.66;;;19.65
15360;BMP280;7779;49.596;11.070;2022-10-16T01:48:19;98168.75;;;19.62
15360;BMP280;7779;49.596;11.070;2022-10-16T01:50:59;98173.81;;;19.62
15360;BMP280;7779;49.596;11.070;2022-10-16T01:53:27;98179.72;;;19.59
15360;BMP280;7779;49.596;11.070;2022-10-16T01:55:55;98178.84;;;19.59
15360;BMP280;7779;49.596;11.070;2022-10-16T01:58:25;98179.69;;;19.58
15360;BMP280;7779;49.596;11.070;2022-10-16T02:00:54;98183.91;;;19.59
15360;BMP280;7779;49.596;11.070;2022-10-16T02:03:22;98186.47;;;19.58
15360;BMP280;7779;49.596;11.070;2022-10-16T02:05:57;98187.34;;;19.61
15360;BMP280;7779;49.596;11.070;2022-10-16T02:08:27;98193.34;;;19.63
15360;BMP280;7779;49.596;11.070;2022-10-16T02:10:56;98192.50;;;19.64
15360;BMP280;7779;49.596;11.070;2022-10-16T02:13:34;98190.84;;;19.66
15360;BMP280;7779;49.596;11.070;2022-10-16T02:16:01;98186.63;;;19.68
15360;BMP280;7779;49.596;11.070;2022-10-16T02:18:27;98191.78;;;19.71
15360;BMP280;7779;49.596;11.070;2022-10-16T02:21:19;98190.16;;;19.74
15360;BMP280;7779;49.596;11.070;2022-10-16T02:26:43;98183.41;;;19.76
15360;BMP280;7779;49.596;11.070;2022-10-16T02:29:15;98187.69;;;19.79
15360;BMP280;7779;49.596;11.070;2022-10-16T02:31:47;98183.47;;;19.79
15360;BMP280;7779;49.596;11.070;2022-10-16T02:34:18;98182.69;;;19.82
15360;BMP280;7779;49.596;11.070;2022-10-16T02:36:45;98177.63;;;19.82
15360;BMP280;7779;49.596;11.070;2022-10-16T02:39:14;98179.34;;;19.83
15360;BMP280;7779;49.596;11.070;2022-10-16T02:41:40;98177.63;;;19.82
15360;BMP280;7779;49.596;11.070;2022-10-16T02:44:06;98169.97;;;19.82
15360;BMP280;7779;49.596;11.070;2022-10-16T02:46:32;98176.69;;;19.80
15360;BMP280;7779;49.596;11.070;2022-10-16T02:48:57;98179.25;;;19.80
15360;BMP280;7779;49.596;11.070;2022-10-16T02:51:23;98187.72;;;19.80
15360;BMP280;7779;49.596;11.070;2022-10-16T02:53:49;98183.47;;;19.81
15360;BMP280;7779;49.596;11.070;2022-10-16T02:56:15;98192.91;;;19.83
15360;BMP280;7779;49.596;11.070;2022-10-16T02:58:40;98182.72;;;19.83
15360;BMP280;7779;49.596;11.070;2022-10-16T03:01:06;98181.03;;;19.84
15360;BMP280;7779;49.596;11.070;2022-10-16T03:03:32;98187.84;;;19.85
15360;BMP280;7779;49.596;11.070;2022-10-16T03:05:58;98192.94;;;19.85
15360;BMP280;7779;49.596;11.070;2022-10-16T03:08:23;98196.31;;;19.85
15360;BMP280;7779;49.596;11.070;2022-10-16T03:10:51;98191.28;;;19.87
15360;BMP280;7779;49.596;11.070;2022-10-16T03:13:17;98191.28;;;19.87
15360;BMP280;7779;49.596;11.070;2022-10-16T03:15:45;98189.56;;;19.87
15360;BMP280;7779;49.596;11.070;2022-10-16T03:18:11;98191.31;;;19.90
15360;BMP280;7779;49.596;11.070;2022-10-16T03:20:37;98189.56;;;19.87
15360;BMP280;7779;49.596;11.070;2022-10-16T03:23:03;98193.84;;;19.88
15360;BMP280;7779;49.596;11.070;2022-10-16T03:25:29;98190.41;;;19.88
15360;BMP280;7779;49.596;11.070;2022-10-16T03:27:55;98187.88;;;19.88
15360;BMP280;7779;49.596;11.070;2022-10-16T03:30:21;98179.41;;;19.87
15360;BMP280;7779;49.596;11.070;2022-10-16T03:32:46;98192.97;;;19.88
15360;BMP280;7779;49.596;11.070;2022-10-16T03:35:13;98191.25;;;19.85
15360;BMP280;7779;49.596;11.070;2022-10-16T03:37:38;98196.31;;;19.85
15360;BMP280;7779;49.596;11.070;2022-10-16T03:40:05;98198.88;;;19.85
15360;BMP280;7779;49.596;11.070;2022-10-16T03:42:31;98195.47;;;19.85
15360;BMP280;7779;49.596;11.070;2022-10-16T03:44:56;98197.97;;;19.83
15360;BMP280;7779;49.596;11.070;2022-10-16T03:47:22;98192.06;;;19.83
15360;BMP280;7779;49.596;11.070;2022-10-16T03:49:49;98194.59;;;19.83
15360;BMP280;7779;49.596;11.070;2022-10-16T03:52:16;98198.84;;;19.84
15360;BMP280;7779;49.596;11.070;2022-10-16T03:54:42;98207.31;;;19.83
15360;BMP280;7779;49.596;11.070;2022-10-16T03:57:07;98203.94;;;19.85
15360;BMP280;7779;49.596;11.070;2022-10-16T03:59:33;98195.47;;;19.85
15360;BMP280;7779;49.596;11.070;2022-10-16T04:01:59;98191.19;;;19.84
15360;BMP280;7779;49.596;11.070;2022-10-16T04:04:24;98194.59;;;19.83
15360;BMP280;7779;49.596;11.070;2022-10-16T04:06:51;98195.44;;;19.83
15360;BMP280;7779;49.596;11.070;2022-10-16T04:09:17;98206.34;;;19.81
15360;BMP280;7779;49.596;11.070;2022-10-16T04:11:42;98207.19;;;19.80
15360;BMP280;7779;49.596;11.070;2022-10-16T04:14:08;98210.59;;;19.80
15360;BMP280;7779;49.596;11.070;2022-10-16T04:16:34;98215.69;;;19.80
15360;BMP280;7779;49.596;11.070;2022-10-16T04:18:59;98225.00;;;19.80
15360;BMP280;7779;49.596;11.070;2022-10-16T04:21:25;98232.66;;;19.81
15360;BMP280;7779;49.596;11.070;2022-10-16T04:23:51;98230.19;;;19.83
15360;BMP280;7779;49.596;11.070;2022-10-16T04:26:17;98228.47;;;19.82
15360;BMP280;7779;49.596;11.070;2022-10-16T04:28:43;98227.66;;;19.83
15360;BMP280;7779;49.596;11.070;2022-10-16T04:31:09;98231.00;;;19.82
15360;BMP280;7779;49.596;11.070;2022-10-16T04:33:35;98237.81;;;19.84
15360;BMP280;7779;49.596;11.070;2022-10-16T04:36:02;98228.53;;;19.85
15360;BMP280;7779;49.596;11.070;2022-10-16T04:38:29;98223.44;;;19.85
15360;BMP280;7779;49.596;11.070;2022-10-16T04:40:55;98220.00;;;19.83
15360;BMP280;7779;49.596;11.070;2022-10-16T04:43:21;98229.34;;;19.84
15360;BMP280;7779;49.596;11.070;2022-10-16T04:45:47;98222.56;;;19.83
15360;BMP280;7779;49.596;11.070;2022-10-16T04:48:16;98223.38;;;19.82
15360;BMP280;7779;49.596;11.070;2022-10-16T04:50:41;98220.75;;;19.80
15360;BMP280;7779;49.596;11.070;2022-10-16T04:53:07;98231.78;;;19.81
15360;BMP280;7779;49.596;11.070;2022-10-16T04:55:33;98225.84;;;19.80
15360;BMP280;7779;49.596;11.070;2022-10-16T04:57:59;98227.56;;;19.81
15360;BMP280;7779;49.596;11.070;2022-10-16T05:00:25;98222.47;;;19.80
15360;BMP280;7779;49.596;11.070;2022-10-16T05:02:51;98227.56;;;19.81
15360;BMP280;7779;49.596;11.070;2022-10-16T05:05:17;98233.53;;;19.82
15360;BMP280;7779;49.596;11.070;2022-10-16T05:07:46;98224.22;;;19.82
15360;BMP280;7779;49.596;11.070;2022-10-16T05:10:12;98223.38;;;19.82
15360;BMP280;7779;49.596;11.070;2022-10-16T05:12:38;98236.09;;;19.82
15360;BMP280;7779;49.596;11.070;2022-10-16T05:15:04;98225.91;;;19.82
15360;BMP280;7779;49.596;11.070;2022-10-16T05:17:30;98232.66;;;19.81
15360;BMP280;7779;49.596;11.070;2022-10-16T05:19:56;98232.66;;;19.81
15360;BMP280;7779;49.596;11.070;2022-10-16T05:22:21;98235.16;;;19.80
15360;BMP280;7779;49.596;11.070;2022-10-16T05:24:47;98238.53;;;19.79
15360;BMP280;7779;49.596;11.070;2022-10-16T05:27:13;98234.25;;;19.76
15360;BMP280;7779;49.596;11.070;2022-10-16T05:29:46;98255.41;;;19.74
15360;BMP280;7779;49.596;11.070;2022-10-16T05:32:14;98255.34;;;19.71
15360;BMP280;7779;49.596;11.070;2022-10-16T05:34:40;98249.31;;;19.67
15360;BMP280;7779;49.596;11.070;2022-10-16T05:37:06;98261.16;;;19.65
15360;BMP280;7779;49.596;11.070;2022-10-16T05:39:32;98269.59;;;19.63
15360;BMP280;7779;49.596;11.070;2022-10-16T05:41:58;98278.00;;;19.60
15360;BMP280;7779;49.596;11.070;2022-10-16T05:44:23;98275.41;;;19.59
15360;BMP280;7779;49.596;11.070;2022-10-16T05:46:49;98275.41;;;19.59
15360;BMP280;7779;49.596;11.070;2022-10-16T05:49:15;98283.03;;;19.59
15360;BMP280;7779;49.596;11.070;2022-10-16T05:51:41;98288.97;;;19.58
15360;BMP280;7779;49.596;11.070;2022-10-16T05:54:08;98293.16;;;19.56
15360;BMP280;7779;49.596;11.070;2022-10-16T05:56:34;98293.09;;;19.53
15360;BMP280;7779;49.596;11.070;2022-10-16T05:59:00;98292.22;;;19.53
15360;BMP280;7779;49.596;11.070;2022-10-16T06:01:26;98299.84;;;19.53
15360;BMP280;7779;49.596;11.070;2022-10-16T06:03:52;98294.78;;;19.53
15360;BMP280;7779;49.596;11.070;2022-10-16T06:06:25;98300.69;;;19.53
15360;BMP280;7779;49.596;11.070;2022-10-16T06:08:53;98299.00;;;19.54
15360;BMP280;7779;49.596;11.070;2022-10-16T06:11:26;98301.66;;;19.58
15360;BMP280;7779;49.596;11.070;2022-10-16T06:13:59;98306.78;;;19.61
15360;BMP280;7779;49.596;11.070;2022-10-16T06:16:28;98304.31;;;19.64
15360;BMP280;7779;49.596;11.070;2022-10-16T06:18:55;98308.63;;;19.68
15360;BMP280;7779;49.596;11.070;2022-10-16T06:21:26;98308.72;;;19.71
15360;BMP280;7779;49.596;11.070;2022-10-16T06:23:54;98306.25;;;19.74
15360;BMP280;7779;49.596;11.070;2022-10-16T06:26:23;98304.59;;;19.76
15360;BMP280;7779;49.596;11.070;2022-10-16T06:28:50;98299.53;;;19.79
15360;BMP280;7779;49.596;11.070;2022-10-16T06:31:16;98305.50;;;19.81
15360;BMP280;7779;49.596;11.070;2022-10-16T06:33:43;98314.91;;;19.82
15360;BMP280;7779;49.596;11.070;2022-10-16T06:36:15;98316.63;;;19.84
15360;BMP280;7779;49.596;11.070;2022-10-16T06:38:41;98314.97;;;19.85
15360;BMP280;7779;49.596;11.070;2022-10-16T06:41:11;98308.25;;;19.90
15360;BMP280;7779;49.596;11.070;2022-10-16T06:43:37;98306.59;;;19.92
15360;BMP280;7779;49.596;11.070;2022-10-16T06:46:05;98305.81;;;19.94
15360;BMP280;7779;49.596;11.070;2022-10-16T06:48:31;98311.78;;;19.96
15360;BMP280;7779;49.596;11.070;2022-10-16T06:51:04;98310.09;;;19.97
15360;BMP280;7779;49.596;11.070;2022-10-16T06:53:33;98330.44;;;19.97
15360;BMP280;7779;49.596;11.070;2022-10-16T06:56:16;98336.41;;;19.97
15360;BMP280;7779;49.596;11.070;2022-10-16T06:58:43;98339.81;;;19.98
15360;BMP280;7779;49.596;11.070;2022-10-16T07:01:10;98342.38;;;20.00
15360;BMP280;7779;49.596;11.070;2022-10-16T07:03:38;98344.97;;;20.02
15360;BMP280;7779;49.596;11.070;2022-10-16T07:06:06;98352.66;;;20.05
15360;BMP280;7779;49.596;11.070;2022-10-16T07:08:39;98348.47;;;20.07
15360;BMP280;7779;49.596;11.070;2022-10-16T07:11:12;98363.78;;;20.10
15360;BMP280;7779;49.596;11.070;2022-10-16T07:13:41;98366.34;;;20.11
15360;BMP280;7779;49.596;11.070;2022-10-16T07:16:18;98370.66;;;20.14
15360;BMP280;7779;49.596;11.070;2022-10-16T07:18:45;98369.84;;;20.16
15360;BMP280;7779;49.596;11.070;2022-10-16T07:21:19;98380.09;;;20.19
15360;BMP280;7779;49.596;11.070;2022-10-16T07:23:54;98378.44;;;20.23
15360;BMP280;7779;49.596;11.070;2022-10-16T07:26:20;98387.81;;;20.25
15360;BMP280;7779;49.596;11.070;2022-10-16T07:28:46;98387.03;;;20.28
15360;BMP280;7779;49.596;11.070;2022-10-16T07:31:15;98395.56;;;20.31
15360;BMP280;7779;49.596;11.070;2022-10-16T07:33:42;98394.78;;;20.34
15360;BMP280;7779;49.596;11.070;2022-10-16T07:36:10;98400.78;;;20.37
15360;BMP280;7779;49.596;11.070;2022-10-16T07:38:35;98393.19;;;20.40
15360;BMP280;7779;49.596;11.070;2022-10-16T07:41:07;98387.38;;;20.47
15360;BMP280;7779;49.596;11.070;2022-10-16T07:43:34;98397.59;;;20.48
15360;BMP280;7779;49.596;11.070;2022-10-16T07:46:00;98387.53;;;20.53
15360;BMP280;7779;49.596;11.070;2022-10-16T07:48:31;98384.19;;;20.57
15360;BMP280;7779;49.596;11.070;2022-10-16T07:51:00;98388.59;;;20.64
15360;BMP280;7779;49.596;11.070;2022-10-16T07:53:26;98395.50;;;20.69
15360;BMP280;7779;49.596;11.070;2022-10-16T07:56:06;98392.22;;;20.77
15360;BMP280;7779;49.596;11.070;2022-10-16T07:58:33;98394.00;;;20.81
15360;BMP280;7779;49.596;11.070;2022-10-16T08:01:05;98396.66;;;20.87
15360;BMP280;7779;49.596;11.070;2022-10-16T08:03:31;98393.38;;;20.94
15360;BMP280;7779;49.596;11.070;2022-10-16T08:05:58;98406.28;;;21.03
15360;BMP280;7779;49.596;11.070;2022-10-16T08:08:24;98405.56;;;21.13
15360;BMP280;7779;49.596;11.070;2022-10-16T08:10:49;98411.69;;;21.24
15360;BMP280;7779;49.596;11.070;2022-10-16T08:13:15;98412.66;;;21.32
15360;BMP280;7779;49.596;11.070;2022-10-16T08:15:43;98406.81;;;21.36
15360;BMP280;7779;49.596;11.070;2022-10-16T08:18:10;98417.06;;;21.40
15360;BMP280;7779;49.596;11.070;2022-10-16T08:20:36;98418.00;;;21.44
15360;BMP280;7779;49.596;11.070;2022-10-16T08:23:02;98422.25;;;21.46
15360;BMP280;7779;49.596;11.070;2022-10-16T08:25:28;98423.19;;;21.50
15360;BMP280;7779;49.596;11.070;2022-10-16T08:27:54;98423.22;;;21.53
15360;BMP280;7779;49.596;11.070;2022-10-16T08:30:23;98414.81;;;21.58
15360;BMP280;7779;49.596;11.070;2022-10-16T08:32:49;98415.75;;;21.63
15360;BMP280;7779;49.596;11.070;2022-10-16T08:35:16;98414.16;;;21.71
15360;BMP280;7779;49.596;11.070;2022-10-16T08:37:42;98410.84;;;21.78
15360;BMP280;7779;49.596;11.070;2022-10-16T08:40:38;98417.78;;;21.89
15360;BMP280;7779;49.596;11.070;2022-10-16T08:45:50;98407.84;;;22.08
15360;BMP280;7779;49.596;11.070;2022-10-16T08:51:04;98417.53;;;22.32
15360;BMP280;7779;49.596;11.070;2022-10-16T08:53:39;98419.38;;;22.44
15360;BMP280;7779;49.596;11.070;2022-10-16T08:56:08;98429.69;;;22.53
15360;BMP280;7779;49.596;11.070;2022-10-16T08:58:34;98424.66;;;22.61
15360;BMP280;7779;49.596;11.070;2022-10-16T09:01:14;98426.47;;;22.72
15360;BMP280;7779;49.596;11.070;2022-10-16T09:04:26;98426.56;;;22.81
15360;BMP280;7779;49.596;11.070;2022-10-16T09:07:04;98406.19;;;22.85
15360;BMP280;7779;49.596;11.070;2022-10-16T09:13:03;98414.91;;;23.04
15360;BMP280;7779;49.596;11.070;2022-10-16T09:18:40;98418.47;;;23.20
15360;BMP280;7779;49.596;11.070;2022-10-16T09:21:19;98415.97;;;23.28
15360;BMP280;7779;49.596;11.070;2022-10-16T09:23:47;98417.69;;;23.33
15360;BMP280;7779;49.596;11.070;2022-10-16T09:26:14;98425.44;;;23.39
15360;BMP280;7779;49.596;11.070;2022-10-16T09:28:41;98426.31;;;23.44
15360;BMP280;7779;49.596;11.070;2022-10-16T09:31:18;98431.50;;;23.52
15360;BMP280;7779;49.596;11.070;2022-10-16T09:33:50;98433.25;;;23.57
15360;BMP280;7779;49.596;11.070;2022-10-16T09:36:17;98442.69;;;23.62
15360;BMP280;7779;49.596;11.070;2022-10-16T09:38:44;98441.88;;;23.66
15360;BMP280;7779;49.596;11.070;2022-10-16T09:41:19;98443.56;;;23.69
15360;BMP280;7779;49.596;11.070;2022-10-16T09:43:56;98436.78;;;23.68
15360;BMP280;7779;49.596;11.070;2022-10-16T09:46:30;98441.88;;;23.69
15360;BMP280;7779;49.596;11.070;2022-10-16T09:49:03;98454.66;;;23.71
15360;BMP280;7779;49.596;11.070;2022-10-16T09:51:35;98454.66;;;23.71
15360;BMP280;7779;49.596;11.070;2022-10-16T09:56:35;98451.25;;;23.69
15360;BMP280;7779;49.596;11.070;2022-10-16T09:59:12;98452.13;;;23.68
15360;BMP280;7779;49.596;11.070;2022-10-16T10:01:45;98455.56;;;23.71
15360;BMP280;7779;49.596;11.070;2022-10-16T10:04:12;98452.97;;;23.73
15360;BMP280;7779;49.596;11.070;2022-10-16T10:06:45;98458.16;;;23.79
15360;BMP280;7779;49.596;11.070;2022-10-16T10:09:38;98459.91;;;23.87
15360;BMP280;7779;49.596;11.070;2022-10-16T10:12:06;98460.81;;;23.95
15360;BMP280;7779;49.596;11.070;2022-10-16T10:14:49;98449.78;;;24.06
15360;BMP280;7779;49.596;11.070;2022-10-16T10:17:27;98449.81;;;24.15
15360;BMP280;7779;49.596;11.070;2022-10-16T10:22:43;98454.13;;;24.27
15360;BMP280;7779;49.596;11.070;2022-10-16T10:27:39;98455.00;;;24.26
15360;BMP280;7779;49.596;11.070;2022-10-16T10:30:34;98455.91;;;24.28
15360;BMP280;7779;49.596;11.070;2022-10-16T10:33:15;98451.66;;;24.31
15360;BMP280;7779;49.596;11.070;2022-10-16T10:39:02;98461.09;;;24.48
15360;BMP280;7779;49.596;11.070;2022-10-16T10:44:18;98461.97;;;24.55
15360;BMP280;7779;49.596;11.070;2022-10-16T10:47:11;98467.13;;;24.58
15360;BMP280;7779;49.596;11.070;2022-10-16T10:52:48;98456.88;;;24.67
15360;BMP280;7779;49.596;11.070;2022-10-16T10:55:36;98453.47;;;24.68
15360;BMP280;7779;49.596;11.070;2022-10-16T11:05:43;98452.66;;;24.80
15360;BMP280;7779;49.596;11.070;2022-10-16T11:08:19;98450.09;;;24.86
15360;BMP280;7779;49.596;11.070;2022-10-16T11:10:54;98450.97;;;24.91
15360;BMP280;7779;49.596;11.070;2022-10-16T11:13:55;98455.28;;;24.98
15360;BMP280;7779;49.596;11.070;2022-10-16T11:16:32;98455.28;;;25.04
15360;BMP280;7779;49.596;11.070;2022-10-16T11:19:39;98454.44;;;25.10
15360;BMP280;7779;49.596;11.070;2022-10-16T11:22:22;98452.75;;;25.13
15360;BMP280;7779;49.596;11.070;2022-10-16T11:25:23;98447.63;;;25.13
15360;BMP280;7779;49.596;11.070;2022-10-16T11:28:13;98459.59;;;25.08
15360;BMP280;7779;49.596;11.070;2022-10-16T11:30:51;98449.31;;;25.01
15360;BMP280;7779;49.596;11.070;2022-10-16T11:33:30;98459.50;;;24.92
15360;BMP280;7779;49.596;11.070;2022-10-16T11:36:41;98465.50;;;24.83
15360;BMP280;7779;49.596;11.070;2022-10-16T11:39:21;98477.44;;;24.78
15360;BMP280;7779;49.596;11.070;2022-10-16T11:48:39;98472.28;;;24.70
15360;BMP280;7779;49.596;11.070;2022-10-16T11:51:24;98474.88;;;24.74
15360;BMP280;7779;49.596;11.070;2022-10-16T11:53:59;98461.19;;;24.81
15360;BMP280;7779;49.596;11.070;2022-10-16T11:56:29;98468.06;;;24.89
15360;BMP280;7779;49.596;11.070;2022-10-16T11:59:20;98468.97;;;25.00
15360;BMP280;7779;49.596;11.070;2022-10-16T12:04:52;98463.88;;;25.30
15360;BMP280;7779;49.596;11.070;2022-10-16T12:07:34;98453.59;;;25.40
15360;BMP280;7779;49.596;11.070;2022-10-16T12:10:30;98457.91;;;25.52
15360;BMP280;7779;49.596;11.070;2022-10-16T12:18:34;98447.63;;;25.74
15360;BMP280;7779;49.596;11.070;2022-10-16T12:21:00;98446.75;;;25.85
15360;BMP280;7779;49.596;11.070;2022-10-16T12:23:47;98462.13;;;25.98
15360;BMP280;7779;49.596;11.070;2022-10-16T12:26:13;98457.00;;;26.09
15360;BMP280;7779;49.596;11.070;2022-10-16T12:28:39;98466.38;;;26.25
15360;BMP280;7779;49.596;11.070;2022-10-16T12:31:09;98463.75;;;26.36
15360;BMP280;7779;49.596;11.070;2022-10-16T12:33:55;98456.88;;;26.46
15360;BMP280;7779;49.596;11.070;2022-10-16T12:36:34;98455.16;;;26.46
15360;BMP280;7779;49.596;11.070;2022-10-16T12:39:00;98450.03;;;26.43
15360;BMP280;7779;49.596;11.070;2022-10-16T12:41:33;98452.63;;;26.39
15360;BMP280;7779;49.596;11.070;2022-10-16T12:44:01;98454.38;;;26.31
15360;BMP280;7779;49.596;11.070;2022-10-16T12:51:41;98449.22;;;26.18
15360;BMP280;7779;49.596;11.070;2022-10-16T12:59:43;98446.72;;;26.06
15360;BMP280;7779;49.596;11.070;2022-10-16T13:06:17;98445.03;;;25.93
15360;BMP280;7779;49.596;11.070;2022-10-16T13:20:16;98452.78;;;25.60
15360;BMP280;7779;49.596;11.070;2022-10-16T13:23:15;98464.72;;;25.55
15360;BMP280;7779;49.596;11.070;2022-10-16T13:25:57;98466.44;;;25.53
15360;BMP280;7779;49.596;11.070;2022-10-16T13:28:32;98463.03;;;25.52
15360;BMP280;7779;49.596;11.070;2022-10-16T13:31:01;98464.75;;;25.50
15360;BMP280;7779;49.596;11.070;2022-10-16T13:33:39;98462.16;;;25.44
15360;BMP280;7779;49.596;11.070;2022-10-16T13:36:06;98466.44;;;25.37
15360;BMP280;7779;49.596;11.070;2022-10-16T13:38:35;98463.88;;;25.33
15360;BMP280;7779;49.596;11.070;2022-10-16T13:41:15;98472.44;;;25.32
15360;BMP280;7779;49.596;11.070;2022-10-16T13:43:49;98482.69;;;25.29
15360;BMP280;7779;49.596;11.070;2022-10-16T13:46:19;98481.81;;;25.24
15360;BMP280;7779;49.596;11.070;2022-10-16T13:49:01;98483.53;;;25.23
15360;BMP280;7779;49.596;11.070;2022-10-16T13:51:30;98489.53;;;25.21
15360;BMP280;7779;49.596;11.070;2022-10-16T13:53:57;98497.22;;;25.19
15360;BMP280;7779;49.596;11.070;2022-10-16T13:56:29;98498.91;;;25.17
15360;BMP280;7779;49.596;11.070;2022-10-16T13:59:07;98492.94;;;25.15
15360;BMP280;7779;49.596;11.070;2022-10-16T14:01:44;98494.63;;;25.15
15360;BMP280;7779;49.596;11.070;2022-10-16T14:04:13;98493.75;;;25.13
15360;BMP280;7779;49.596;11.070;2022-10-16T14:06:46;98497.22;;;25.13
15360;BMP280;7779;49.596;11.070;2022-10-16T14:09:29;98498.03;;;25.13
15360;BMP280;7779;49.596;11.070;2022-10-16T14:12:08;98499.75;;;25.12
15360;BMP280;7779;49.596;11.070;2022-10-16T14:14:45;98494.63;;;25.12
15360;BMP280;7779;49.596;11.070;2022-10-16T14:17:34;98494.63;;;25.12
15360;BMP280;7779;49.596;11.070;2022-10-16T14:20:05;98478.38;;;25.09
15360;BMP280;7779;49.596;11.070;2022-10-16T14:22:41;98482.66;;;25.08
15360;BMP280;7779;49.596;11.070;2022-10-16T14:27:57;98484.34;;;25.06
15360;BMP280;7779;49.596;11.070;2022-10-16T14:30:25;98495.47;;;25.05
15360;BMP280;7779;49.596;11.070;2022-10-16T14:33:00;98486.94;;;25.05
15360;BMP280;7779;49.596;11.070;2022-10-16T14:35:32;98489.50;;;25.03
15360;BMP280;7779;49.596;11.070;2022-10-16T14:38:00;98481.78;;;25.00
15360;BMP280;7779;49.596;11.070;2022-10-16T14:40:31;98488.63;;;24.98
15360;BMP280;7779;49.596;11.070;2022-10-16T14:42:58;98484.31;;;24.97
15360;BMP280;7779;49.596;11.070;2022-10-16T14:45:35;98493.69;;;24.92
15360;BMP280;7779;49.596;11.070;2022-10-16T14:48:06;98498.81;;;24.91
15360;BMP280;7779;49.596;11.070;2022-10-16T14:50:40;98497.94;;;24.87
15360;BMP280;7779;49.596;11.070;2022-10-16T14:53:13;98504.78;;;24.85
15360;BMP280;7779;49.596;11.070;2022-10-16T14:55:40;98503.91;;;24.82
15360;BMP280;7779;49.596;11.070;2022-10-16T14:58:15;98489.38;;;24.82
15360;BMP280;7779;49.596;11.070;2022-10-16T15:00:42;98504.75;;;24.82
15360;BMP280;7779;49.596;11.070;2022-10-16T15:03:08;98503.06;;;24.86
15360;BMP280;7779;49.596;11.070;2022-10-16T15:05:33;98502.25;;;24.88
15360;BMP280;7779;49.596;11.070;2022-10-16T15:07:59;98499.66;;;24.91
15360;BMP280;7779;49.596;11.070;2022-10-16T15:10:27;98498.00;;;24.93
15360;BMP280;7779;49.596;11.070;2022-10-16T15:12:54;98502.28;;;24.96
15360;BMP280;7779;49.596;11.070;2022-10-16T15:17:50;98501.44;;;24.97
15360;BMP280;7779;49.596;11.070;2022-10-16T15:20:19;98498.84;;;24.97
15360;BMP280;7779;49.596;11.070;2022-10-16T15:22:45;98494.56;;;24.97
15360;BMP280;7779;49.596;11.070;2022-10-16T15:25:52;98505.72;;;24.98
15360;BMP280;7779;49.596;11.070;2022-10-16T15:28:21;98503.13;;;24.96
15360;BMP280;7779;49.596;11.070;2022-10-16T15:30:51;98502.28;;;24.96
15360;BMP280;7779;49.596;11.070;2022-10-16T15:33:21;98504.84;;;24.94
15360;BMP280;7779;49.596;11.070;2022-10-16T15:35:52;98521.91;;;24.92
15360;BMP280;7779;49.596;11.070;2022-10-16T15:38:21;98519.31;;;24.89
15360;BMP280;7779;49.596;11.070;2022-10-16T15:40:48;98521.88;;;24.83
15360;BMP280;7779;49.596;11.070;2022-10-16T15:43:15;98529.53;;;24.80
15360;BMP280;7779;49.596;11.070;2022-10-16T15:45:40;98534.66;;;24.76
15360;BMP280;7779;49.596;11.070;2022-10-16T15:48:10;98522.66;;;24.73
15360;BMP280;7779;49.596;11.070;2022-10-16T15:50:38;98530.34;;;24.69
15360;BMP280;7779;49.596;11.070;2022-10-16T15:53:03;98526.91;;;24.66
15360;BMP280;7779;49.596;11.070;2022-10-16T15:55:29;98518.38;;;24.58
15360;BMP280;7779;49.596;11.070;2022-10-16T15:57:55;98523.47;;;24.56
15360;BMP280;7779;49.596;11.070;2022-10-16T16:00:21;98526.00;;;24.52
15360;BMP280;7779;49.596;11.070;2022-10-16T16:02:53;98529.41;;;24.48
15360;BMP280;7779;49.596;11.070;2022-10-16T16:05:21;98524.25;;;24.42
15360;BMP280;7779;49.596;11.070;2022-10-16T16:07:47;98525.94;;;24.37
15360;BMP280;7779;49.596;11.070;2022-10-16T16:10:13;98533.59;;;24.31
15360;BMP280;7779;49.596;11.070;2022-10-16T16:12:39;98537.84;;;24.28
15360;BMP280;7779;49.596;11.070;2022-10-16T16:15:08;98536.91;;;24.23
15360;BMP280;7779;49.596;11.070;2022-10-16T16:17:35;98540.28;;;24.17